Time;durP1;ratioP1;P1;durP2;ratioP2;P2;SDS_P1;SDS_P2;PMS_P1;PMS_P2;Temp;Humidity;BMP_temperature;BMP_pressure;BME280_temperature;BME280_humidity;BME280_pressure;Samples;Min_cycle;Max_cycle;Signal;HPM_P1;HPM_P2
2023/07/28 00:02:25;;;;;;;16.13;7.90;;;18.10;99.90;;;;;;4983001;28;20655;-96
2023/07/28 00:04:51;;;;;;;15.25;8.10;;;17.80;99.90;;;;;;4998440;28;20074;-95
2023/07/28 00:07:18;;;;;;;16.20;7.53;;;17.90;99.90;;;;;;4998546;28;20101;-96
2023/07/28 00:09:47;;;;;;;19.40;7.75;;;17.80;99.90;;;;;;4998486;28;20133;-96
2023/07/28 00:12:13;;;;;;;17.45;8.38;;;18.00;99.90;;;;;;5006400;28;20489;-95
2023/07/28 00:14:39;;;;;;;17.77;8.10;;;17.80;99.90;;;;;;5006794;28;20102;-96
2023/07/28 00:17:08;;;;;;;16.90;8.35;;;17.90;99.90;;;;;;5008905;28;20098;-94
2023/07/28 00:19:34;;;;;;;16.67;8.98;;;18.10;99.90;;;;;;5016157;28;20052;-95
2023/07/28 00:22:00;;;;;;;21.92;8.52;;;18.10;99.90;;;;;;5024884;28;20040;-95
2023/07/28 00:24:28;;;;;;;21.00;8.90;;;18.10;99.90;;;;;;5016182;28;20045;-96
2023/07/28 00:26:54;;;;;;;20.08;9.45;;;17.90;99.90;;;;;;5017248;28;20045;-95
2023/07/28 00:29:19;;;;;;;18.00;9.10;;;17.90;99.90;;;;;;5019825;28;20043;-96
2023/07/28 00:31:45;;;;;;;18.23;8.98;;;17.90;99.90;;;;;;5019534;28;20073;-95
2023/07/28 00:34:11;;;;;;;15.40;8.10;;;17.80;99.90;;;;;;5025267;28;20046;-95
2023/07/28 00:36:37;;;;;;;17.23;9.15;;;17.90;99.90;;;;;;5005699;28;20078;-95
2023/07/28 00:39:03;;;;;;;14.68;8.20;;;18.10;99.90;;;;;;4991739;28;20487;-95
2023/07/28 00:41:32;;;;;;;15.55;8.20;;;18.00;99.90;;;;;;5010160;28;20060;-96
2023/07/28 00:44:04;;;;;;;14.63;7.85;;;18.00;99.90;;;;;;5015952;28;20071;-95
2023/07/28 00:46:30;;;;;;;13.75;7.85;;;18.10;99.90;;;;;;5020033;28;20029;-95
2023/07/28 00:48:57;;;;;;;12.98;7.57;;;17.80;99.90;;;;;;5020724;28;20700;-95
2023/07/28 00:51:23;;;;;;;15.93;8.27;;;18.00;99.90;;;;;;5001904;28;20037;-95
2023/07/28 00:53:49;;;;;;;13.13;8.38;;;18.10;99.90;;;;;;5023735;28;20068;-96
2023/07/28 00:56:16;;;;;;;17.60;8.57;;;18.10;99.90;;;;;;5019125;28;20041;-95
2023/07/28 00:58:44;;;;;;;12.60;7.95;;;18.10;99.90;;;;;;5024385;28;20489;-95
2023/07/28 01:01:10;;;;;;;16.40;8.38;;;18.20;99.90;;;;;;5029500;28;20132;-95
2023/07/28 01:03:36;;;;;;;18.67;8.75;;;18.20;99.90;;;;;;4998708;28;20069;-95
2023/07/28 01:06:11;;;;;;;20.50;8.45;;;18.10;99.90;;;;;;5006761;28;20727;-96
2023/07/28 01:08:49;;;;;;;17.63;8.48;;;18.10;99.90;;;;;;5017639;28;20081;-96
2023/07/28 01:11:18;;;;;;;19.20;8.30;;;17.90;99.90;;;;;;5017385;28;20595;-95
2023/07/28 01:13:48;;;;;;;17.75;9.32;;;18.00;99.90;;;;;;5021042;28;20037;-95
2023/07/28 01:16:15;;;;;;;17.67;9.52;;;18.00;99.90;;;;;;5028652;28;20041;-96
2023/07/28 01:18:41;;;;;;;15.13;8.73;;;18.00;99.90;;;;;;5023206;28;20045;-96
2023/07/28 01:21:14;;;;;;;15.82;8.73;;;18.10;99.90;;;;;;5021098;28;20268;-95
2023/07/28 01:24:04;;;;;;;14.82;9.25;;;18.10;99.90;;;;;;5018363;28;20102;-95
2023/07/28 01:26:34;;;;;;;17.77;9.00;;;17.90;99.90;;;;;;5014360;28;20072;-95
2023/07/28 01:29:01;;;;;;;16.60;8.30;;;18.10;99.90;;;;;;5032454;28;20049;-95
2023/07/28 01:31:29;;;;;;;13.00;8.00;;;18.00;99.90;;;;;;5020341;28;20042;-95
2023/07/28 01:33:55;;;;;;;16.70;9.00;;;18.20;99.90;;;;;;5022866;28;20041;-95
2023/07/28 01:36:20;;;;;;;16.42;8.98;;;17.80;99.90;;;;;;5007026;28;20060;-96
2023/07/28 01:38:46;;;;;;;16.33;9.82;;;18.10;99.90;;;;;;5020328;28;20116;-95
2023/07/28 01:41:12;;;;;;;12.25;8.85;;;18.00;99.90;;;;;;5032538;28;20041;-96
2023/07/28 01:43:39;;;;;;;14.65;9.48;;;18.10;99.90;;;;;;5026183;28;20492;-95
2023/07/28 01:46:05;;;;;;;21.38;9.73;;;17.90;99.90;;;;;;5005697;28;20044;-96
2023/07/28 01:48:34;;;;;;;16.42;9.52;;;18.00;99.90;;;;;;5038410;28;20044;-95
2023/07/28 01:51:02;;;;;;;17.80;9.30;;;17.90;99.90;;;;;;5021585;28;20052;-95
2023/07/28 01:53:33;;;;;;;18.40;9.75;;;17.90;99.90;;;;;;5020435;28;20032;-96
2023/07/28 01:56:00;;;;;;;14.80;8.38;;;17.90;99.90;;;;;;5021156;28;20045;-95
2023/07/28 01:58:27;;;;;;;27.95;10.65;;;18.00;99.90;;;;;;5013659;28;20506;-96
2023/07/28 02:00:53;;;;;;;17.43;9.87;;;18.10;99.90;;;;;;5035100;28;20037;-96
2023/07/28 02:03:18;;;;;;;15.43;9.40;;;18.10;99.90;;;;;;4996981;28;20040;-96
2023/07/28 02:05:44;;;;;;;19.85;9.65;;;18.00;99.90;;;;;;5019656;28;20128;-95
2023/07/28 02:08:10;;;;;;;16.30;9.63;;;18.20;99.90;;;;;;5036631;28;20468;-96
2023/07/28 02:10:36;;;;;;;15.40;8.63;;;18.00;99.90;;;;;;5024852;28;20522;-95
2023/07/28 02:13:05;;;;;;;15.15;8.07;;;18.10;99.90;;;;;;5030049;28;20171;-95
2023/07/28 02:15:31;;;;;;;16.58;9.32;;;18.20;99.90;;;;;;5025715;28;20066;-96
2023/07/28 02:17:57;;;;;;;18.58;8.68;;;18.20;99.90;;;;;;5011902;28;20455;-96
2023/07/28 02:20:26;;;;;;;13.35;8.55;;;18.00;99.90;;;;;;5020391;28;20122;-96
2023/07/28 02:22:52;;;;;;;12.13;7.93;;;17.90;99.90;;;;;;5024842;28;20064;-95
2023/07/28 02:25:18;;;;;;;13.18;7.97;;;18.00;99.90;;;;;;5020596;28;20045;-96
2023/07/28 02:27:47;;;;;;;10.98;6.90;;;17.90;99.90;;;;;;5019436;28;20484;-96
2023/07/28 02:30:15;;;;;;;11.10;7.10;;;18.00;99.90;;;;;;5027187;28;20104;-95
2023/07/28 02:32:43;;;;;;;11.95;6.72;;;18.20;99.90;;;;;;5000695;28;20049;-95
2023/07/28 02:35:10;;;;;;;9.45;6.82;;;18.10;99.90;;;;;;4995631;28;20046;-95
2023/07/28 02:37:38;;;;;;;12.18;6.63;;;18.10;99.90;;;;;;5013666;28;20499;-95
2023/07/28 02:40:05;;;;;;;9.35;6.10;;;18.10;99.90;;;;;;5004534;28;20037;-96
2023/07/28 02:42:33;;;;;;;10.15;6.50;;;18.00;99.90;;;;;;5020785;28;20060;-96
2023/07/28 02:44:59;;;;;;;10.95;6.78;;;17.90;99.90;;;;;;5020594;28;20049;-96
2023/07/28 02:47:25;;;;;;;10.55;7.00;;;18.20;99.90;;;;;;5015859;28;20041;-96
2023/07/28 02:49:51;;;;;;;9.52;6.97;;;;;;;;;;5014764;28;20045;-96
2023/07/28 02:52:20;;;;;;;13.88;7.07;;;17.90;99.90;;;;;;5022648;28;20051;-95
2023/07/28 02:54:50;;;;;;;13.73;7.30;;;18.10;99.90;;;;;;5005294;28;20151;-96
2023/07/28 02:57:19;;;;;;;13.50;8.52;;;18.10;99.90;;;;;;5008736;28;20072;-96
2023/07/28 02:59:45;;;;;;;11.68;7.50;;;18.00;99.90;;;;;;5006226;28;20042;-96
2023/07/28 03:02:11;;;;;;;14.20;8.05;;;17.90;99.90;;;;;;5025496;28;20044;-96
2023/07/28 03:04:37;;;;;;;13.27;7.50;;;18.20;99.90;;;;;;5040318;28;20094;-96
2023/07/28 03:07:04;;;;;;;15.75;8.77;;;18.20;99.90;;;;;;5002885;28;20128;-95
2023/07/28 03:09:30;;;;;;;16.33;8.75;;;18.20;99.90;;;;;;5014712;28;20048;-96
2023/07/28 03:11:56;;;;;;;15.80;8.77;;;18.00;99.90;;;;;;5023753;28;20052;-95
2023/07/28 03:14:22;;;;;;;17.17;9.30;;;18.20;99.90;;;;;;5023756;28;20057;-95
2023/07/28 03:16:48;;;;;;;17.08;9.60;;;17.90;99.90;;;;;;5019831;28;20038;-96
2023/07/28 03:19:14;;;;;;;15.23;8.30;;;18.00;99.90;;;;;;5020850;28;20155;-95
2023/07/28 03:21:40;;;;;;;20.10;9.20;;;18.10;99.90;;;;;;5028124;28;20076;-95
2023/07/28 03:24:06;;;;;;;13.75;8.93;;;18.10;99.90;;;;;;5010291;28;20037;-96
2023/07/28 03:26:32;;;;;;;15.68;8.32;;;18.20;99.90;;;;;;5023891;28;20098;-96
2023/07/28 03:28:58;;;;;;;15.05;8.18;;;17.90;99.90;;;;;;5021960;28;20408;-96
2023/07/28 03:31:24;;;;;;;15.25;8.82;;;18.10;99.90;;;;;;5015913;28;20098;-95
2023/07/28 03:33:50;;;;;;;19.90;8.55;;;17.80;99.90;;;;;;5001794;28;20042;-95
2023/07/28 03:36:16;;;;;;;15.18;9.35;;;17.80;99.90;;;;;;5003427;28;20049;-95
2023/07/28 03:38:42;;;;;;;14.73;8.88;;;18.10;99.90;;;;;;5004172;28;20052;-96
2023/07/28 03:41:08;;;;;;;13.70;8.32;;;18.00;99.90;;;;;;5022255;28;20041;-95
2023/07/28 03:43:34;;;;;;;13.05;8.80;;;17.90;99.90;;;;;;5014548;28;20034;-96
2023/07/28 03:46:00;;;;;;;20.30;9.80;;;17.90;99.90;;;;;;5017683;28;20041;-95
2023/07/28 03:48:26;;;;;;;19.73;9.87;;;18.10;99.90;;;;;;5020854;28;20045;-95
2023/07/28 03:50:52;;;;;;;21.70;9.55;;;18.00;99.90;;;;;;5024049;28;20042;-95
2023/07/28 03:53:18;;;;;;;15.10;8.65;;;17.60;99.90;;;;;;5021173;28;20044;-96
2023/07/28 03:55:44;;;;;;;15.48;9.15;;;17.90;99.90;;;;;;5023138;28;20658;-96
2023/07/28 03:58:13;;;;;;;17.15;8.15;;;18.10;99.90;;;;;;5021168;28;20038;-95
2023/07/28 04:00:39;;;;;;;14.65;8.48;;;18.20;99.90;;;;;;5017596;28;20044;-96
2023/07/28 04:03:05;;;;;;;13.98;8.00;;;18.20;99.90;;;;;;5013542;28;20057;-94
2023/07/28 04:05:31;;;;;;;16.10;8.10;;;18.00;99.90;;;;;;5020571;28;20045;-96
2023/07/28 04:07:57;;;;;;;11.82;7.47;;;18.20;99.90;;;;;;5020850;28;20133;-96
2023/07/28 04:10:23;;;;;;;14.10;7.22;;;17.90;99.90;;;;;;5004425;28;20042;-95
2023/07/28 04:12:49;;;;;;;13.15;6.97;;;18.20;99.90;;;;;;5022334;28;20439;-96
2023/07/28 04:15:15;;;;;;;13.80;7.80;;;18.20;99.90;;;;;;5018916;28;20084;-95
2023/07/28 04:17:41;;;;;;;17.42;7.45;;;17.90;99.90;;;;;;5013521;28;20532;-96
2023/07/28 04:20:07;;;;;;;13.80;7.18;;;18.10;99.90;;;;;;5012926;28;20037;-95
2023/07/28 04:22:38;;;;;;;13.50;7.30;;;18.20;99.90;;;;;;5019575;28;20083;-95
2023/07/28 04:25:04;;;;;;;14.10;6.80;;;18.10;99.90;;;;;;5018591;28;20037;-96
2023/07/28 04:27:30;;;;;;;11.93;6.35;;;17.90;99.90;;;;;;5021023;28;20038;-95
2023/07/28 04:29:56;;;;;;;13.38;6.18;;;17.90;99.90;;;;;;5020647;28;20041;-95
2023/07/28 04:32:22;;;;;;;13.13;6.18;;;18.20;99.90;;;;;;5021866;28;20046;-95
2023/07/28 04:34:51;;;;;;;16.98;6.05;;;18.00;99.90;;;;;;5021134;28;20183;-96
2023/07/28 04:37:17;;;;;;;14.15;6.03;;;17.90;99.90;;;;;;5019987;28;20053;-95
2023/07/28 04:39:45;;;;;;;12.50;6.00;;;18.20;99.90;;;;;;5003219;28;20666;-94
2023/07/28 04:42:11;;;;;;;11.43;5.63;;;17.90;99.90;;;;;;5020375;28;20037;-96
2023/07/28 04:44:45;;;;;;;10.02;5.80;;;18.20;99.90;;;;;;5003010;28;20044;-96
2023/07/28 04:47:11;;;;;;;8.98;5.35;;;18.00;99.90;;;;;;5016167;28;20115;-95
2023/07/28 04:49:37;;;;;;;10.80;5.60;;;18.20;99.90;;;;;;5019829;28;20076;-95
2023/07/28 04:52:03;;;;;;;15.13;6.70;;;17.90;99.90;;;;;;5009861;28;20045;-96
2023/07/28 04:54:33;;;;;;;13.77;6.75;;;18.20;99.90;;;;;;5018666;28;20034;-95
2023/07/28 04:57:01;;;;;;;12.35;6.00;;;18.00;99.90;;;;;;5003748;28;20622;-96
2023/07/28 04:59:32;;;;;;;12.25;6.03;;;18.30;99.90;;;;;;5007313;28;20544;-96
2023/07/28 05:01:58;;;;;;;11.20;5.78;;;18.30;99.90;;;;;;5024405;28;20045;-96
2023/07/28 05:04:25;;;;;;;7.95;5.13;;;18.20;99.90;;;;;;5022752;28;20061;-94
2023/07/28 05:06:51;;;;;;;11.53;5.60;;;18.30;99.90;;;;;;5023403;28;20128;-96
2023/07/28 05:09:19;;;;;;;8.52;5.43;;;18.00;99.90;;;;;;5024684;28;20146;-96
2023/07/28 05:11:45;;;;;;;9.07;5.40;;;18.30;99.90;;;;;;5022326;28;20049;-96
2023/07/28 05:14:14;;;;;;;10.88;6.00;;;18.10;99.90;;;;;;5005165;28;20049;-96
2023/07/28 05:16:42;;;;;;;9.88;5.40;;;18.10;99.90;;;;;;5019182;28;20038;-95
2023/07/28 05:19:08;;;;;;;10.02;5.32;;;18.30;99.90;;;;;;5017673;28;20045;-95
2023/07/28 05:21:34;;;;;;;8.93;4.97;;;18.40;99.90;;;;;;5018601;28;20092;-96
2023/07/28 05:24:00;;;;;;;7.82;5.00;;;18.30;99.90;;;;;;5004395;28;20060;-95
2023/07/28 05:26:26;;;;;;;9.18;5.53;;;18.30;99.90;;;;;;5017327;28;20041;-95
2023/07/28 05:28:55;;;;;;;10.20;5.70;;;18.10;99.90;;;;;;4991923;28;20041;-95
2023/07/28 05:31:21;;;;;;;6.25;5.10;;;18.30;99.90;;;;;;4999264;28;20049;-94
2023/07/28 05:33:47;;;;;;;10.15;5.53;;;18.00;99.90;;;;;;4991504;28;20141;-96
2023/07/28 05:36:13;;;;;;;6.90;4.80;;;18.00;99.90;;;;;;4999090;28;20385;-95
2023/07/28 05:38:44;;;;;;;10.02;5.60;;;18.20;99.90;;;;;;5014714;28;20046;-94
2023/07/28 05:41:10;;;;;;;9.90;5.70;;;18.10;99.90;;;;;;4999475;28;20174;-95
2023/07/28 05:43:42;;;;;;;8.55;5.07;;;18.30;99.90;;;;;;5012511;28;20054;-95
2023/07/28 05:46:08;;;;;;;9.75;5.68;;;18.20;99.90;;;;;;5010939;28;20029;-94
2023/07/28 05:48:37;;;;;;;10.05;5.38;;;18.10;99.90;;;;;;4999788;28;20514;-95
2023/07/28 05:51:09;;;;;;;8.20;4.47;;;18.10;99.90;;;;;;4998297;28;20739;-94
2023/07/28 05:53:34;;;;;;;6.88;4.22;;;18.40;99.90;;;;;;5016160;28;20047;-95
2023/07/28 05:56:09;;;;;;;10.65;4.55;;;18.30;99.90;;;;;;5013037;28;20038;-95
2023/07/28 05:58:41;;;;;;;7.07;4.22;;;18.00;99.90;;;;;;4981306;28;20037;-95
2023/07/28 06:01:09;;;;;;;6.40;4.30;;;18.40;99.90;;;;;;5005923;28;20073;-95
2023/07/28 06:03:38;;;;;;;7.05;4.15;;;18.10;99.90;;;;;;5015280;28;20049;-95
2023/07/28 06:06:04;;;;;;;7.13;3.80;;;18.50;99.90;;;;;;5016596;28;20041;-95
2023/07/28 06:08:50;;;;;;;6.10;4.50;;;18.50;99.90;;;;;;5014317;28;20571;-95
2023/07/28 06:11:16;;;;;;;6.07;4.18;;;18.30;99.90;;;;;;5030974;28;20479;-95
2023/07/28 06:13:42;;;;;;;8.07;4.22;;;18.60;99.90;;;;;;5016005;28;20041;-94
2023/07/28 06:16:08;;;;;;;6.15;3.90;;;18.60;99.90;;;;;;5028803;28;20128;-94
2023/07/28 06:18:34;;;;;;;8.35;4.40;;;18.60;99.90;;;;;;5014466;28;20115;-94
2023/07/28 06:21:03;;;;;;;6.70;4.03;;;18.30;99.90;;;;;;5019041;28;20162;-95
2023/07/28 06:23:28;;;;;;;6.05;4.28;;;18.40;99.90;;;;;;5003055;28;20099;-94
2023/07/28 06:25:55;;;;;;;7.93;4.60;;;18.50;99.90;;;;;;5004065;28;20041;-93
2023/07/28 06:28:21;;;;;;;4.43;3.75;;;18.40;99.90;;;;;;5006204;28;20484;-95
2023/07/28 06:30:47;;;;;;;7.17;4.10;;;18.60;99.90;;;;;;5018348;28;20033;-94
2023/07/28 06:33:13;;;;;;;8.32;4.00;;;18.30;99.90;;;;;;5034972;28;20677;-94
2023/07/28 06:35:38;;;;;;;6.43;3.90;;;18.40;99.90;;;;;;5035456;28;20045;-94
2023/07/28 06:38:04;;;;;;;6.40;4.60;;;18.60;99.90;;;;;;5015702;28;20116;-95
2023/07/28 06:40:36;;;;;;;5.60;3.90;;;18.50;99.90;;;;;;4985839;28;20484;-96
2023/07/28 06:43:18;;;;;;;;;;;;;;;;;;;;;
2023/07/28 06:49:30;;;;;;;6.40;4.78;;;19.00;99.90;;;;;;4960198;28;20075;-95
2023/07/28 06:51:57;;;;;;;6.95;4.43;;;18.90;99.90;;;;;;4939593;28;20085;-95
2023/07/28 06:54:24;;;;;;;6.15;5.40;;;18.80;99.90;;;;;;5004864;28;20040;-95
2023/07/28 06:56:50;;;;;;;5.70;4.85;;;19.40;99.90;;;;;;5018802;28;20041;-95
2023/07/28 06:59:19;;;;;;;6.15;5.55;;;19.00;99.90;;;;;;5005254;28;20040;-96
2023/07/28 07:01:47;;;;;;;7.47;5.70;;;18.70;99.90;;;;;;5007170;28;20045;-95
2023/07/28 07:19:15;;;;;;;5.10;4.70;;;19.20;99.90;;;;;;4932158;28;20513;-95
2023/07/28 07:36:51;;;;;;;3.70;3.00;;;20.40;99.90;;;;;;4896730;29;20064;-95
2023/07/28 07:39:22;;;;;;;4.22;3.08;;;19.90;99.90;;;;;;4970434;28;20138;-95
2023/07/28 07:46:05;;;;;;;3.60;3.30;;;19.70;99.90;;;;;;4937441;28;20081;-96
2023/07/28 07:49:24;;;;;;;4.10;3.55;;;19.50;99.90;;;;;;5030039;28;20052;-96
2023/07/28 07:51:52;;;;;;;3.35;3.05;;;19.60;99.90;;;;;;5034329;28;20042;-90
2023/07/28 07:54:18;;;;;;;3.08;2.70;;;19.50;99.90;;;;;;5034321;28;20107;-89
2023/07/28 07:56:47;;;;;;;3.88;3.05;;;19.90;99.90;;;;;;5018871;28;20044;-88
2023/07/28 07:59:27;;;;;;;4.72;2.70;;;20.10;99.90;;;;;;5040539;28;20043;-88
2023/07/28 08:01:56;;;;;;;3.13;2.30;;;20.20;99.90;;;;;;5020615;28;20052;-88
2023/07/28 08:04:22;;;;;;;3.28;2.60;;;20.10;99.90;;;;;;5050539;28;20049;-89
2023/07/28 08:06:47;;;;;;;5.40;3.10;;;20.00;99.90;;;;;;5033819;28;20048;-87
2023/07/28 08:09:13;;;;;;;3.28;2.90;;;20.10;99.90;;;;;;5034748;28;20072;-88
2023/07/28 08:11:39;;;;;;;3.45;3.00;;;20.00;99.90;;;;;;5053081;28;20037;-87
2023/07/28 08:14:05;;;;;;;4.40;2.97;;;20.10;99.90;;;;;;5034749;28;20114;-88
2023/07/28 08:16:31;;;;;;;3.33;2.78;;;20.20;99.90;;;;;;5013771;28;20033;-87
2023/07/28 08:18:57;;;;;;;2.75;2.40;;;20.30;99.90;;;;;;5019206;28;20135;-88
2023/07/28 08:21:22;;;;;;;3.97;2.53;;;20.40;99.90;;;;;;5000042;28;20044;-89
2023/07/28 08:23:48;;;;;;;2.92;2.55;;;20.30;99.90;;;;;;5018177;28;20053;-88
2023/07/28 08:26:14;;;;;;;4.22;2.90;;;20.20;99.90;;;;;;5006030;28;20090;-87
2023/07/28 08:28:40;;;;;;;3.55;2.60;;;20.10;99.90;;;;;;5013569;28;20543;-87
2023/07/28 08:31:05;;;;;;;3.95;2.25;;;20.10;99.90;;;;;;5001360;28;20044;-86
2023/07/28 08:33:31;;;;;;;3.65;2.70;;;20.00;99.90;;;;;;5002625;28;20480;-88
2023/07/28 08:35:57;;;;;;;3.00;2.75;;;19.90;99.90;;;;;;5023478;28;20048;-89
2023/07/28 08:38:23;;;;;;;2.80;2.55;;;19.90;99.90;;;;;;5017868;28;20033;-89
2023/07/28 08:40:49;;;;;;;3.00;2.70;;;19.70;99.90;;;;;;5034702;28;20089;-88
2023/07/28 08:43:15;;;;;;;4.57;3.33;;;19.70;99.90;;;;;;5000639;28;20060;-88
2023/07/28 08:45:40;;;;;;;3.13;2.70;;;19.60;99.90;;;;;;5018638;28;20054;-87
2023/07/28 08:48:06;;;;;;;4.18;3.10;;;19.50;99.90;;;;;;5018315;28;20043;-88
2023/07/28 08:50:33;;;;;;;4.13;3.13;;;19.50;99.90;;;;;;5051768;28;20075;-88
2023/07/28 08:52:59;;;;;;;3.63;2.85;;;19.30;99.90;;;;;;5033603;28;20703;-88
2023/07/28 08:55:25;;;;;;;3.30;3.00;;;19.10;99.90;;;;;;5015035;28;20079;-87
2023/07/28 08:57:51;;;;;;;3.85;2.90;;;19.50;99.90;;;;;;5031075;28;20476;-88
2023/07/28 09:00:17;;;;;;;3.08;2.53;;;19.60;99.90;;;;;;5034107;28;20055;-87
2023/07/28 09:02:50;;;;;;;2.90;2.50;;;19.80;99.90;;;;;;5030919;28;20072;-87
2023/07/28 09:05:20;;;;;;;2.58;2.20;;;20.00;99.90;;;;;;5033101;28;20352;-89
2023/07/28 09:07:47;;;;;;;2.70;2.30;;;20.00;99.90;;;;;;5032308;28;20126;-87
2023/07/28 09:10:13;;;;;;;2.92;2.35;;;20.10;99.90;;;;;;5016817;28;20041;-88
2023/07/28 09:12:50;;;;;;;3.45;2.28;;;20.30;99.90;;;;;;5036905;28;20041;-87
2023/07/28 09:15:19;;;;;;;2.53;2.10;;;20.60;99.90;;;;;;5032317;28;20488;-88
2023/07/28 09:17:45;;;;;;;2.45;1.90;;;20.60;99.90;;;;;;5016607;28;20045;-88
2023/07/28 09:20:17;;;;;;;1.98;1.50;;;20.70;99.90;;;;;;5034522;28;20072;-88
2023/07/28 09:22:44;;;;;;;2.63;1.98;;;20.70;99.90;;;;;;5014862;28;20114;-87
2023/07/28 09:25:15;;;;;;;2.13;1.92;;;20.70;99.90;;;;;;5035663;28;20048;-89
2023/07/28 09:27:51;;;;;;;2.22;1.85;;;20.70;99.90;;;;;;5034550;28;20045;-88
2023/07/28 09:30:17;;;;;;;1.58;1.48;;;20.70;99.90;;;;;;5032231;28;20124;-88
2023/07/28 09:32:50;;;;;;;2.90;1.80;;;20.60;99.90;;;;;;5016209;28;20119;-89
2023/07/28 09:35:17;;;;;;;2.15;1.40;;;20.70;99.90;;;;;;5050266;28;20040;-88
2023/07/28 09:37:48;;;;;;;2.25;1.60;;;20.60;99.90;;;;;;5037177;28;20472;-89
2023/07/28 09:40:16;;;;;;;2.05;1.83;;;20.40;99.90;;;;;;5028133;28;20100;-88
2023/07/28 09:42:44;;;;;;;2.10;1.90;;;20.40;99.90;;;;;;5047119;28;20045;-90
2023/07/28 09:45:12;;;;;;;2.22;2.03;;;20.40;99.90;;;;;;5002203;28;20048;-91
2023/07/28 09:47:38;;;;;;;3.42;1.95;;;20.40;99.90;;;;;;5026894;28;20056;-88
2023/07/28 09:50:08;;;;;;;2.65;2.10;;;20.60;99.90;;;;;;5031211;28;20044;-89
2023/07/28 09:52:42;;;;;;;2.17;1.80;;;21.00;99.90;;;;;;5032105;28;20042;-90
2023/07/28 09:55:12;;;;;;;1.77;1.67;;;21.30;99.90;;;;;;5017146;28;20047;-90
2023/07/28 09:57:49;;;;;;;3.15;2.00;;;21.60;99.90;;;;;;5054960;28;20043;-89
2023/07/28 10:00:17;;;;;;;3.63;1.90;;;21.90;99.90;;;;;;5031497;28;20122;-90
2023/07/28 10:02:44;;;;;;;2.17;1.58;;;22.00;99.90;;;;;;5004303;28;20087;-90
2023/07/28 10:05:10;;;;;;;3.15;1.15;;;22.00;99.90;;;;;;5002326;28;20037;-89
2023/07/28 10:07:41;;;;;;;1.33;1.23;;;22.30;99.90;;;;;;5049921;28;20033;-88
2023/07/28 10:10:10;;;;;;;1.38;1.27;;;22.30;99.90;;;;;;5051468;28;20080;-88
2023/07/28 10:12:45;;;;;;;1.52;1.30;;;22.40;99.90;;;;;;5019343;28;20041;-90
2023/07/28 10:15:21;;;;;;;2.25;1.40;;;22.50;99.90;;;;;;5035364;28;20099;-90
2023/07/28 10:17:54;;;;;;;1.02;0.90;;;22.50;99.90;;;;;;5051992;28;20249;-89
2023/07/28 10:20:41;;;;;;;2.05;1.00;;;22.40;99.90;;;;;;5047084;28;20116;-90
2023/07/28 10:23:12;;;;;;;1.20;0.80;;;22.20;99.90;;;;;;5038403;28;20045;-90
2023/07/28 10:25:41;;;;;;;2.17;1.10;;;22.30;99.90;;;;;;5032782;28;20041;-90
2023/07/28 10:28:26;;;;;;;1.25;1.02;;;22.30;99.90;;;;;;5022088;28;20048;-90
2023/07/28 10:30:59;;;;;;;1.55;1.05;;;22.10;99.90;;;;;;5036542;28;20071;-91
2023/07/28 10:33:33;;;;;;;1.58;1.10;;;21.90;99.90;;;;;;5038336;28;20041;-90
2023/07/28 10:36:19;;;;;;;2.05;1.30;;;21.90;99.90;;;;;;5038091;28;20049;-90
2023/07/28 10:38:45;;;;;;;2.33;1.25;;;21.80;99.90;;;;;;5016857;28;20049;-91
2023/07/28 10:41:16;;;;;;;1.40;1.30;;;21.80;99.90;;;;;;5014903;28;20037;-91
2023/07/28 10:43:43;;;;;;;2.35;1.67;;;21.70;99.90;;;;;;5018016;28;20515;-92
2023/07/28 10:47:08;;;;;;;1.70;1.58;;;21.60;99.90;;;;;;5020276;28;20040;-91
2023/07/28 10:49:34;;;;;;;2.47;1.70;;;21.40;99.90;;;;;;5026307;28;20049;-91
2023/07/28 10:52:00;;;;;;;1.92;1.63;;;21.30;99.90;;;;;;5050626;28;20071;-91
2023/07/28 10:54:31;;;;;;;2.13;1.92;;;21.20;99.90;;;;;;5017794;28;20064;-91
2023/07/28 10:57:02;;;;;;;2.45;1.90;;;21.40;99.90;;;;;;5035620;28;20110;-91
2023/07/28 10:59:28;;;;;;;3.28;2.08;;;21.60;99.90;;;;;;5034962;28;20037;-91
2023/07/28 11:01:57;;;;;;;2.38;1.98;;;21.70;99.90;;;;;;5015429;28;20499;-92
2023/07/28 11:04:28;;;;;;;3.03;1.52;;;21.70;99.90;;;;;;5012954;28;20041;-92
2023/07/28 11:06:53;;;;;;;1.85;1.40;;;21.70;99.90;;;;;;5051835;28;20040;-91
2023/07/28 11:09:22;;;;;;;2.60;1.40;;;21.60;99.90;;;;;;5033385;28;20075;-92
2023/07/28 11:11:50;;;;;;;2.47;1.40;;;21.70;99.90;;;;;;5038212;28;20661;-90
2023/07/28 11:14:17;;;;;;;1.60;1.40;;;21.80;99.90;;;;;;5038281;28;20110;-92
2023/07/28 11:16:47;;;;;;;1.98;1.00;;;22.20;99.90;;;;;;5038533;28;20041;-91
2023/07/28 11:19:13;;;;;;;1.30;1.10;;;22.30;99.90;;;;;;5022052;28;20040;-92
2023/07/28 11:21:41;;;;;;;1.67;1.00;;;22.40;99.90;;;;;;5040514;28;20433;-92
2023/07/28 11:24:08;;;;;;;1.20;1.10;;;22.60;99.90;;;;;;5051035;28;20737;-91
2023/07/28 11:26:36;;;;;;;3.38;1.30;;;22.60;99.90;;;;;;5023904;28;20049;-92
2023/07/28 11:29:03;;;;;;;1.83;1.23;;;22.60;99.90;;;;;;5024756;28;20500;-91
2023/07/28 11:31:29;;;;;;;1.85;1.45;;;22.70;99.90;;;;;;5022127;28;20101;-92
2023/07/28 11:33:55;;;;;;;1.20;1.10;;;22.90;99.90;;;;;;5037841;28;20052;-90
2023/07/28 11:36:29;;;;;;;2.13;0.88;;;23.00;99.90;;;;;;5015725;28;20037;-91
2023/07/28 11:38:58;;;;;;;1.85;1.30;;;23.00;99.90;;;;;;5037969;28;20041;-91
2023/07/28 11:41:25;;;;;;;1.40;0.98;;;23.00;99.90;;;;;;5038483;28;20029;-91
2023/07/28 11:43:51;;;;;;;1.65;1.00;;;23.10;99.90;;;;;;5038890;28;20065;-91
2023/07/28 11:46:43;;;;;;;1.27;1.13;;;23.20;99.90;;;;;;4996948;28;20044;-91
2023/07/28 11:49:22;;;;;;;2.40;1.10;;;23.20;99.90;;;;;;5034550;28;20056;-91
2023/07/28 11:51:50;;;;;;;3.20;1.00;;;23.30;99.90;;;;;;5056523;28;20041;-91
2023/07/28 11:54:19;;;;;;;2.00;1.05;;;23.30;99.90;;;;;;5024123;28;20392;-92
2023/07/28 11:56:46;;;;;;;1.55;0.80;;;23.30;99.90;;;;;;5018766;28;20034;-91
2023/07/28 11:59:15;;;;;;;1.10;0.80;;;23.30;99.90;;;;;;5050518;28;20126;-92
2023/07/28 12:01:52;;;;;;;3.83;1.33;;;23.20;99.90;;;;;;5034003;28;20174;-92
2023/07/28 12:04:27;;;;;;;2.33;0.63;;;23.00;99.90;;;;;;5029353;28;20041;-91
2023/07/28 12:07:29;;;;;;;1.63;0.80;;;23.00;99.90;;;;;;5036516;28;20463;-91
2023/07/28 12:10:09;;;;;;;1.48;0.80;;;23.00;99.90;;;;;;5038723;28;20106;-92
2023/07/28 12:12:46;;;;;;;1.10;0.90;;;23.20;99.90;;;;;;5036576;28;20044;-90
2023/07/28 12:15:23;;;;;;;1.70;0.95;;;23.20;99.90;;;;;;5037248;28;20036;-90
2023/07/28 12:18:08;;;;;;;1.48;1.20;;;23.20;99.90;;;;;;5031537;28;20106;-91
2023/07/28 12:20:46;;;;;;;1.95;1.10;;;23.10;99.90;;;;;;5035151;28;20047;-91
2023/07/28 12:23:14;;;;;;;1.48;1.05;;;23.10;99.90;;;;;;5022031;28;20059;-91
2023/07/28 12:25:40;;;;;;;1.33;0.80;;;23.00;99.90;;;;;;5036434;28;20476;-92
2023/07/28 12:28:06;;;;;;;0.85;0.82;;;23.00;99.90;;;;;;5004404;28;20036;-92
2023/07/28 12:30:33;;;;;;;1.53;0.90;;;22.90;99.90;;;;;;5019762;28;20094;-91
2023/07/28 12:32:59;;;;;;;2.05;0.77;;;22.80;99.90;;;;;;5018943;28;20068;-91
2023/07/28 12:35:31;;;;;;;1.58;0.98;;;22.70;99.90;;;;;;5025210;28;20430;-91
2023/07/28 12:38:04;;;;;;;1.52;1.08;;;22.60;99.90;;;;;;5023481;28;20111;-92
2023/07/28 12:40:34;;;;;;;1.20;1.10;;;22.60;99.90;;;;;;5020037;28;20033;-91
2023/07/28 12:43:03;;;;;;;2.28;1.20;;;22.70;99.90;;;;;;5040356;28;20082;-90
2023/07/28 12:45:29;;;;;;;1.00;0.90;;;22.60;99.90;;;;;;5039741;28;20048;-91
2023/07/28 12:47:58;;;;;;;1.63;0.82;;;22.60;99.90;;;;;;5052649;28;20068;-91
2023/07/28 12:50:25;;;;;;;2.13;0.88;;;22.60;99.90;;;;;;5023846;28;20044;-91
2023/07/28 12:52:51;;;;;;;1.60;1.00;;;22.60;99.90;;;;;;5023813;28;20048;-92
2023/07/28 12:55:18;;;;;;;1.63;0.93;;;22.60;99.90;;;;;;5020332;28;20063;-91
2023/07/28 12:57:43;;;;;;;;;;;22.70;99.90;;;;;;5037106;28;20656;-92
2023/07/28 13:00:13;;;;;;;1.20;1.10;;;22.80;99.90;;;;;;5025194;28;19923;-91
2023/07/28 13:02:41;;;;;;;1.13;0.73;;;23.00;99.90;;;;;;5040170;28;20046;-91
2023/07/28 13:05:07;;;;;;;1.08;0.90;;;23.00;99.90;;;;;;5037193;28;20048;-92
2023/07/28 13:07:33;;;;;;;0.63;0.60;;;23.10;99.90;;;;;;5015188;28;20067;-91
2023/07/28 13:09:59;;;;;;;2.17;0.90;;;23.00;99.90;;;;;;5020082;28;20060;-90
2023/07/28 13:12:25;;;;;;;0.70;0.68;;;23.00;99.90;;;;;;5025694;28;20044;-90
2023/07/28 13:14:50;;;;;;;1.20;0.77;;;23.00;99.90;;;;;;5018527;28;20072;-90
2023/07/28 13:17:16;;;;;;;1.17;0.75;;;23.00;99.90;;;;;;5001644;28;20040;-89
2023/07/28 13:19:42;;;;;;;1.20;0.85;;;23.00;99.90;;;;;;5018296;28;20060;-90
2023/07/28 13:22:08;;;;;;;1.07;0.80;;;23.00;99.90;;;;;;4998003;28;20108;-89
2023/07/28 13:24:33;;;;;;;1.23;0.80;;;23.00;99.90;;;;;;5050252;28;20036;-91
2023/07/28 13:26:59;;;;;;;1.38;0.73;;;22.90;99.90;;;;;;5017118;28;20444;-91
2023/07/28 13:29:25;;;;;;;0.93;0.52;;;22.80;99.90;;;;;;5036106;28;20120;-90
2023/07/28 13:31:57;;;;;;;2.42;1.00;;;22.80;99.90;;;;;;5033816;28;20037;-90